sensor_id;sensor_type;location;lat;lon;timestamp;P1;durP1;ratioP1;P2;durP2;ratioP2
56657;SDS011;42530;52.240;19.354;2022-07-23T00:00:30;13.43;;;12.23;;
56657;SDS011;42530;52.240;19.354;2022-07-23T00:02:56;14.15;;;12.98;;
56657;SDS011;42530;52.240;19.354;2022-07-23T00:05:21;14.75;;;13.32;;
56657;SDS011;42530;52.240;19.354;2022-07-23T00:07:47;14.25;;;12.95;;
56657;SDS011;42530;52.240;19.354;2022-07-23T00:10:12;15.18;;;13.88;;
56657;SDS011;42530;52.240;19.354;2022-07-23T00:12:38;14.40;;;12.98;;
56657;SDS011;42530;52.240;19.354;2022-07-23T00:15:05;16.33;;;14.65;;
56657;SDS011;42530;52.240;19.354;2022-07-23T00:17:31;15.68;;;14.05;;
56657;SDS011;42530;52.240;19.354;2022-07-23T00:19:56;14.75;;;13.32;;
56657;SDS011;42530;52.240;19.354;2022-07-23T00:22:22;14.80;;;12.93;;
56657;SDS011;42530;52.240;19.354;2022-07-23T00:24:48;14.52;;;13.15;;
56657;SDS011;42530;52.240;19.354;2022-07-23T00:27:13;14.15;;;12.68;;
56657;SDS011;42530;52.240;19.354;2022-07-23T00:29:39;13.82;;;12.35;;
56657;SDS011;42530;52.240;19.354;2022-07-23T00:32:04;17.02;;;15.32;;
56657;SDS011;42530;52.240;19.354;2022-07-23T00:34:30;14.57;;;13.27;;
56657;SDS011;42530;52.240;19.354;2022-07-23T00:36:56;14.95;;;13.43;;
56657;SDS011;42530;52.240;19.354;2022-07-23T00:39:21;15.88;;;14.30;;
56657;SDS011;42530;52.240;19.354;2022-07-23T00:41:48;15.32;;;13.77;;
56657;SDS011;42530;52.240;19.354;2022-07-23T00:44:16;15.27;;;13.88;;
56657;SDS011;42530;52.240;19.354;2022-07-23T00:46:50;16.33;;;14.77;;
56657;SDS011;42530;52.240;19.354;2022-07-23T00:49:24;14.82;;;13.23;;
56657;SDS011;42530;52.240;19.354;2022-07-23T00:51:52;14.50;;;13.20;;
56657;SDS011;42530;52.240;19.354;2022-07-23T00:54:18;15.43;;;14.02;;
56657;SDS011;42530;52.240;19.354;2022-07-23T00:56:45;14.30;;;13.00;;
56657;SDS011;42530;52.240;19.354;2022-07-23T00:59:11;13.98;;;12.68;;
56657;SDS011;42530;52.240;19.354;2022-07-23T01:01:38;14.93;;;13.73;;
56657;SDS011;42530;52.240;19.354;2022-07-23T01:04:03;15.75;;;14.27;;
56657;SDS011;42530;52.240;19.354;2022-07-23T01:06:30;15.73;;;12.93;;
56657;SDS011;42530;52.240;19.354;2022-07-23T01:09:00;15.40;;;13.50;;
56657;SDS011;42530;52.240;19.354;2022-07-23T01:11:26;13.93;;;12.57;;
56657;SDS011;42530;52.240;19.354;2022-07-23T01:13:51;13.20;;;11.90;;
56657;SDS011;42530;52.240;19.354;2022-07-23T01:16:17;13.60;;;12.27;;
56657;SDS011;42530;52.240;19.354;2022-07-23T01:18:42;14.13;;;12.82;;
56657;SDS011;42530;52.240;19.354;2022-07-23T01:21:08;14.05;;;12.50;;
56657;SDS011;42530;52.240;19.354;2022-07-23T01:23:38;18.45;;;14.10;;
56657;SDS011;42530;52.240;19.354;2022-07-23T01:26:04;21.60;;;14.07;;
56657;SDS011;42530;52.240;19.354;2022-07-23T01:28:30;13.32;;;11.88;;
56657;SDS011;42530;52.240;19.354;2022-07-23T01:30:55;12.88;;;11.65;;
56657;SDS011;42530;52.240;19.354;2022-07-23T01:33:21;14.20;;;12.85;;
56657;SDS011;42530;52.240;19.354;2022-07-23T01:35:46;14.82;;;13.23;;
56657;SDS011;42530;52.240;19.354;2022-07-23T01:38:12;16.10;;;12.77;;
56657;SDS011;42530;52.240;19.354;2022-07-23T01:40:37;15.85;;;14.45;;
56657;SDS011;42530;52.240;19.354;2022-07-23T01:43:03;14.57;;;12.98;;
56657;SDS011;42530;52.240;19.354;2022-07-23T01:45:28;14.82;;;13.38;;
56657;SDS011;42530;52.240;19.354;2022-07-23T01:47:54;14.38;;;13.02;;
56657;SDS011;42530;52.240;19.354;2022-07-23T01:50:20;15.77;;;14.30;;
56657;SDS011;42530;52.240;19.354;2022-07-23T01:52:45;15.85;;;14.25;;
56657;SDS011;42530;52.240;19.354;2022-07-23T01:55:11;16.05;;;14.70;;
56657;SDS011;42530;52.240;19.354;2022-07-23T01:57:37;16.20;;;14.70;;
56657;SDS011;42530;52.240;19.354;2022-07-23T02:00:03;13.88;;;12.77;;
56657;SDS011;42530;52.240;19.354;2022-07-23T02:02:29;14.75;;;13.48;;
56657;SDS011;42530;52.240;19.354;2022-07-23T02:04:54;14.98;;;13.45;;
56657;SDS011;42530;52.240;19.354;2022-07-23T02:07:20;15.23;;;13.68;;
56657;SDS011;42530;52.240;19.354;2022-07-23T02:09:46;16.20;;;14.60;;
56657;SDS011;42530;52.240;19.354;2022-07-23T02:12:11;17.20;;;15.60;;
56657;SDS011;42530;52.240;19.354;2022-07-23T02:14:37;14.65;;;13.32;;
56657;SDS011;42530;52.240;19.354;2022-07-23T02:17:02;15.18;;;13.88;;
56657;SDS011;42530;52.240;19.354;2022-07-23T02:19:28;15.90;;;14.35;;
56657;SDS011;42530;52.240;19.354;2022-07-23T02:21:54;15.48;;;14.18;;
56657;SDS011;42530;52.240;19.354;2022-07-23T02:24:19;20.00;;;15.68;;
56657;SDS011;42530;52.240;19.354;2022-07-23T02:26:45;16.70;;;15.05;;
56657;SDS011;42530;52.240;19.354;2022-07-23T02:29:11;16.17;;;14.77;;
56657;SDS011;42530;52.240;19.354;2022-07-23T02:31:37;15.73;;;14.43;;
56657;SDS011;42530;52.240;19.354;2022-07-23T02:34:02;17.35;;;15.80;;
56657;SDS011;42530;52.240;19.354;2022-07-23T02:36:28;15.88;;;14.45;;
56657;SDS011;42530;52.240;19.354;2022-07-23T02:38:54;15.80;;;14.48;;
56657;SDS011;42530;52.240;19.354;2022-07-23T02:41:19;16.42;;;14.88;;
56657;SDS011;42530;52.240;19.354;2022-07-23T02:43:45;17.05;;;15.40;;
56657;SDS011;42530;52.240;19.354;2022-07-23T02:46:10;17.30;;;15.60;;
56657;SDS011;42530;52.240;19.354;2022-07-23T02:48:36;17.50;;;15.70;;
56657;SDS011;42530;52.240;19.354;2022-07-23T02:51:01;17.38;;;15.55;;
56657;SDS011;42530;52.240;19.354;2022-07-23T02:53:27;16.50;;;15.10;;
56657;SDS011;42530;52.240;19.354;2022-07-23T02:55:53;16.65;;;15.10;;
56657;SDS011;42530;52.240;19.354;2022-07-23T02:58:18;15.30;;;13.98;;
56657;SDS011;42530;52.240;19.354;2022-07-23T03:00:44;16.48;;;14.90;;
56657;SDS011;42530;52.240;19.354;2022-07-23T03:03:09;17.17;;;15.57;;
56657;SDS011;42530;52.240;19.354;2022-07-23T03:05:35;20.00;;;16.27;;
56657;SDS011;42530;52.240;19.354;2022-07-23T03:08:01;17.13;;;15.50;;
56657;SDS011;42530;52.240;19.354;2022-07-23T03:10:26;18.80;;;16.90;;
56657;SDS011;42530;52.240;19.354;2022-07-23T03:12:52;19.40;;;16.58;;
56657;SDS011;42530;52.240;19.354;2022-07-23T03:15:17;17.15;;;15.65;;
56657;SDS011;42530;52.240;19.354;2022-07-23T03:17:43;16.38;;;14.88;;
56657;SDS011;42530;52.240;19.354;2022-07-23T03:20:09;17.73;;;15.90;;
56657;SDS011;42530;52.240;19.354;2022-07-23T03:22:35;17.45;;;15.90;;
56657;SDS011;42530;52.240;19.354;2022-07-23T03:25:01;17.33;;;15.73;;
56657;SDS011;42530;52.240;19.354;2022-07-23T03:27:27;19.23;;;15.93;;
56657;SDS011;42530;52.240;19.354;2022-07-23T03:29:56;18.38;;;16.58;;
56657;SDS011;42530;52.240;19.354;2022-07-23T03:32:23;17.23;;;15.50;;
56657;SDS011;42530;52.240;19.354;2022-07-23T03:34:50;16.90;;;15.35;;
56657;SDS011;42530;52.240;19.354;2022-07-23T03:37:16;17.40;;;15.82;;
56657;SDS011;42530;52.240;19.354;2022-07-23T03:39:42;17.73;;;15.90;;
56657;SDS011;42530;52.240;19.354;2022-07-23T03:42:08;18.13;;;16.35;;
56657;SDS011;42530;52.240;19.354;2022-07-23T03:44:34;18.25;;;16.52;;
56657;SDS011;42530;52.240;19.354;2022-07-23T03:47:02;17.13;;;15.40;;
56657;SDS011;42530;52.240;19.354;2022-07-23T03:49:28;19.75;;;16.23;;
56657;SDS011;42530;52.240;19.354;2022-07-23T03:51:53;18.25;;;16.48;;
56657;SDS011;42530;52.240;19.354;2022-07-23T03:54:19;16.77;;;14.15;;
56657;SDS011;42530;52.240;19.354;2022-07-23T03:56:45;22.98;;;17.42;;
56657;SDS011;42530;52.240;19.354;2022-07-23T03:59:10;19.25;;;17.30;;
56657;SDS011;42530;52.240;19.354;2022-07-23T04:01:36;18.20;;;16.35;;
56657;SDS011;42530;52.240;19.354;2022-07-23T04:04:02;19.05;;;17.25;;
56657;SDS011;42530;52.240;19.354;2022-07-23T04:06:28;18.73;;;16.92;;
56657;SDS011;42530;52.240;19.354;2022-07-23T04:08:54;17.67;;;16.13;;
56657;SDS011;42530;52.240;19.354;2022-07-23T04:11:19;21.13;;;17.83;;
56657;SDS011;42530;52.240;19.354;2022-07-23T04:13:45;18.55;;;16.95;;
56657;SDS011;42530;52.240;19.354;2022-07-23T04:16:11;18.90;;;17.00;;
56657;SDS011;42530;52.240;19.354;2022-07-23T04:18:37;18.90;;;17.15;;
56657;SDS011;42530;52.240;19.354;2022-07-23T04:21:02;18.90;;;17.20;;
56657;SDS011;42530;52.240;19.354;2022-07-23T04:23:28;18.65;;;16.92;;
56657;SDS011;42530;52.240;19.354;2022-07-23T04:25:53;18.92;;;17.33;;
56657;SDS011;42530;52.240;19.354;2022-07-23T04:28:19;19.92;;;17.83;;
56657;SDS011;42530;52.240;19.354;2022-07-23T04:30:44;19.27;;;17.38;;
56657;SDS011;42530;52.240;19.354;2022-07-23T04:33:10;19.23;;;17.40;;
56657;SDS011;42530;52.240;19.354;2022-07-23T04:35:35;17.98;;;16.15;;
56657;SDS011;42530;52.240;19.354;2022-07-23T04:38:02;18.20;;;16.13;;
56657;SDS011;42530;52.240;19.354;2022-07-23T04:40:28;19.67;;;17.30;;
56657;SDS011;42530;52.240;19.354;2022-07-23T04:42:54;20.25;;;18.20;;
56657;SDS011;42530;52.240;19.354;2022-07-23T04:45:20;18.58;;;16.60;;
56657;SDS011;42530;52.240;19.354;2022-07-23T04:47:46;18.55;;;16.90;;
56657;SDS011;42530;52.240;19.354;2022-07-23T04:50:12;18.65;;;16.92;;
56657;SDS011;42530;52.240;19.354;2022-07-23T04:52:38;19.17;;;17.17;;
56657;SDS011;42530;52.240;19.354;2022-07-23T04:55:03;20.70;;;18.55;;
56657;SDS011;42530;52.240;19.354;2022-07-23T04:57:29;19.67;;;17.73;;
56657;SDS011;42530;52.240;19.354;2022-07-23T04:59:55;19.90;;;18.20;;
56657;SDS011;42530;52.240;19.354;2022-07-23T05:02:20;18.90;;;17.10;;
56657;SDS011;42530;52.240;19.354;2022-07-23T05:04:46;19.15;;;17.38;;
56657;SDS011;42530;52.240;19.354;2022-07-23T05:07:11;19.58;;;17.67;;
56657;SDS011;42530;52.240;19.354;2022-07-23T05:09:36;18.27;;;16.45;;
56657;SDS011;42530;52.240;19.354;2022-07-23T05:12:02;18.05;;;16.38;;
56657;SDS011;42530;52.240;19.354;2022-07-23T05:14:28;18.98;;;16.95;;
56657;SDS011;42530;52.240;19.354;2022-07-23T05:16:53;18.42;;;16.52;;
56657;SDS011;42530;52.240;19.354;2022-07-23T05:19:19;19.80;;;18.08;;
56657;SDS011;42530;52.240;19.354;2022-07-23T05:21:44;19.48;;;17.67;;
56657;SDS011;42530;52.240;19.354;2022-07-23T05:24:10;20.10;;;17.08;;
56657;SDS011;42530;52.240;19.354;2022-07-23T05:26:36;17.27;;;15.88;;
56657;SDS011;42530;52.240;19.354;2022-07-23T05:29:01;18.50;;;16.17;;
56657;SDS011;42530;52.240;19.354;2022-07-23T05:31:27;19.00;;;17.30;;
56657;SDS011;42530;52.240;19.354;2022-07-23T05:33:53;16.73;;;14.98;;
56657;SDS011;42530;52.240;19.354;2022-07-23T05:36:18;17.73;;;15.80;;
56657;SDS011;42530;52.240;19.354;2022-07-23T05:38:44;18.05;;;16.25;;
56657;SDS011;42530;52.240;19.354;2022-07-23T05:41:09;18.35;;;15.27;;
56657;SDS011;42530;52.240;19.354;2022-07-23T05:43:35;17.83;;;15.93;;
56657;SDS011;42530;52.240;19.354;2022-07-23T05:46:00;18.52;;;16.75;;
56657;SDS011;42530;52.240;19.354;2022-07-23T05:48:26;16.00;;;14.63;;
56657;SDS011;42530;52.240;19.354;2022-07-23T05:50:51;18.77;;;16.85;;
56657;SDS011;42530;52.240;19.354;2022-07-23T05:53:17;17.08;;;15.57;;
56657;SDS011;42530;52.240;19.354;2022-07-23T05:55:42;17.27;;;15.68;;
56657;SDS011;42530;52.240;19.354;2022-07-23T05:58:08;16.15;;;14.68;;
56657;SDS011;42530;52.240;19.354;2022-07-23T06:00:34;16.42;;;14.85;;
56657;SDS011;42530;52.240;19.354;2022-07-23T06:03:00;19.73;;;15.45;;
56657;SDS011;42530;52.240;19.354;2022-07-23T06:05:26;15.85;;;14.50;;
56657;SDS011;42530;52.240;19.354;2022-07-23T06:07:51;15.30;;;13.20;;
56657;SDS011;42530;52.240;19.354;2022-07-23T06:10:18;15.65;;;14.30;;
56657;SDS011;42530;52.240;19.354;2022-07-23T06:12:44;15.65;;;14.35;;
56657;SDS011;42530;52.240;19.354;2022-07-23T06:15:10;15.82;;;14.25;;
56657;SDS011;42530;52.240;19.354;2022-07-23T06:17:36;15.27;;;13.75;;
56657;SDS011;42530;52.240;19.354;2022-07-23T06:20:04;13.18;;;12.18;;
56657;SDS011;42530;52.240;19.354;2022-07-23T06:22:30;11.45;;;10.45;;
56657;SDS011;42530;52.240;19.354;2022-07-23T06:24:56;11.80;;;10.73;;
56657;SDS011;42530;52.240;19.354;2022-07-23T06:27:21;9.93;;;8.60;;
56657;SDS011;42530;52.240;19.354;2022-07-23T06:29:47;8.63;;;7.93;;
56657;SDS011;42530;52.240;19.354;2022-07-23T06:32:12;12.13;;;10.23;;
56657;SDS011;42530;52.240;19.354;2022-07-23T06:34:38;10.52;;;9.63;;
56657;SDS011;42530;52.240;19.354;2022-07-23T06:37:04;9.93;;;9.07;;
56657;SDS011;42530;52.240;19.354;2022-07-23T06:39:30;10.80;;;9.82;;
56657;SDS011;42530;52.240;19.354;2022-07-23T06:41:56;18.13;;;10.13;;
56657;SDS011;42530;52.240;19.354;2022-07-23T06:44:21;10.90;;;9.75;;
56657;SDS011;42530;52.240;19.354;2022-07-23T06:46:47;10.13;;;9.13;;
56657;SDS011;42530;52.240;19.354;2022-07-23T06:49:12;10.15;;;9.15;;
56657;SDS011;42530;52.240;19.354;2022-07-23T06:51:38;10.43;;;9.05;;
56657;SDS011;42530;52.240;19.354;2022-07-23T06:54:04;7.78;;;7.15;;
56657;SDS011;42530;52.240;19.354;2022-07-23T06:56:30;7.57;;;6.97;;
56657;SDS011;42530;52.240;19.354;2022-07-23T06:58:55;7.60;;;7.00;;
56657;SDS011;42530;52.240;19.354;2022-07-23T07:01:21;9.85;;;7.13;;
56657;SDS011;42530;52.240;19.354;2022-07-23T07:03:46;7.10;;;6.57;;
56657;SDS011;42530;52.240;19.354;2022-07-23T07:06:12;8.15;;;7.55;;
56657;SDS011;42530;52.240;19.354;2022-07-23T07:08:38;8.10;;;7.50;;
56657;SDS011;42530;52.240;19.354;2022-07-23T07:11:04;8.27;;;7.57;;
56657;SDS011;42530;52.240;19.354;2022-07-23T07:13:29;8.30;;;7.70;;
56657;SDS011;42530;52.240;19.354;2022-07-23T07:15:55;5.60;;;5.10;;
56657;SDS011;42530;52.240;19.354;2022-07-23T07:18:21;5.30;;;4.90;;
56657;SDS011;42530;52.240;19.354;2022-07-23T07:20:46;5.82;;;5.43;;
56657;SDS011;42530;52.240;19.354;2022-07-23T07:23:12;5.25;;;4.70;;
56657;SDS011;42530;52.240;19.354;2022-07-23T07:25:38;6.70;;;6.10;;
56657;SDS011;42530;52.240;19.354;2022-07-23T07:28:03;7.35;;;6.00;;
56657;SDS011;42530;52.240;19.354;2022-07-23T07:30:29;5.18;;;4.82;;
56657;SDS011;42530;52.240;19.354;2022-07-23T07:32:54;5.78;;;5.28;;
56657;SDS011;42530;52.240;19.354;2022-07-23T07:35:20;5.90;;;5.30;;
56657;SDS011;42530;52.240;19.354;2022-07-23T07:37:45;11.40;;;6.13;;
56657;SDS011;42530;52.240;19.354;2022-07-23T07:40:11;6.90;;;6.30;;
56657;SDS011;42530;52.240;19.354;2022-07-23T07:42:46;6.38;;;5.88;;
56657;SDS011;42530;52.240;19.354;2022-07-23T07:45:13;8.07;;;7.57;;
56657;SDS011;42530;52.240;19.354;2022-07-23T07:47:38;6.28;;;5.78;;
56657;SDS011;42530;52.240;19.354;2022-07-23T07:50:04;6.28;;;5.78;;
56657;SDS011;42530;52.240;19.354;2022-07-23T07:52:30;6.78;;;6.00;;
56657;SDS011;42530;52.240;19.354;2022-07-23T07:54:55;8.93;;;8.05;;
56657;SDS011;42530;52.240;19.354;2022-07-23T07:57:21;9.25;;;8.45;;
56657;SDS011;42530;52.240;19.354;2022-07-23T07:59:46;6.82;;;6.32;;
56657;SDS011;42530;52.240;19.354;2022-07-23T08:02:12;6.55;;;6.15;;
56657;SDS011;42530;52.240;19.354;2022-07-23T08:04:37;7.50;;;6.82;;
56657;SDS011;42530;52.240;19.354;2022-07-23T08:07:03;9.57;;;8.68;;
56657;SDS011;42530;52.240;19.354;2022-07-23T08:09:28;6.55;;;5.75;;
56657;SDS011;42530;52.240;19.354;2022-07-23T08:11:54;6.45;;;5.95;;
56657;SDS011;42530;52.240;19.354;2022-07-23T08:14:20;7.03;;;6.45;;
56657;SDS011;42530;52.240;19.354;2022-07-23T08:16:45;7.57;;;6.38;;
56657;SDS011;42530;52.240;19.354;2022-07-23T08:19:10;5.88;;;5.40;;
56657;SDS011;42530;52.240;19.354;2022-07-23T08:21:36;9.52;;;6.90;;
56657;SDS011;42530;52.240;19.354;2022-07-23T08:24:01;7.03;;;6.53;;
56657;SDS011;42530;52.240;19.354;2022-07-23T08:26:27;6.50;;;6.05;;
56657;SDS011;42530;52.240;19.354;2022-07-23T08:28:52;6.22;;;5.72;;
56657;SDS011;42530;52.240;19.354;2022-07-23T08:31:18;6.63;;;6.13;;
56657;SDS011;42530;52.240;19.354;2022-07-23T08:33:43;6.43;;;6.03;;
56657;SDS011;42530;52.240;19.354;2022-07-23T08:36:09;10.98;;;6.25;;
56657;SDS011;42530;52.240;19.354;2022-07-23T08:38:35;6.60;;;6.10;;
56657;SDS011;42530;52.240;19.354;2022-07-23T08:41:00;6.05;;;5.65;;
56657;SDS011;42530;52.240;19.354;2022-07-23T08:43:27;5.57;;;5.10;;
56657;SDS011;42530;52.240;19.354;2022-07-23T08:45:55;5.38;;;4.97;;
56657;SDS011;42530;52.240;19.354;2022-07-23T08:48:25;6.25;;;5.65;;
56657;SDS011;42530;52.240;19.354;2022-07-23T08:50:55;5.78;;;5.38;;
56657;SDS011;42530;52.240;19.354;2022-07-23T08:53:22;5.40;;;5.03;;
56657;SDS011;42530;52.240;19.354;2022-07-23T08:55:52;6.10;;;5.53;;
56657;SDS011;42530;52.240;19.354;2022-07-23T08:58:20;6.15;;;5.75;;
56657;SDS011;42530;52.240;19.354;2022-07-23T09:00:46;5.13;;;4.75;;
56657;SDS011;42530;52.240;19.354;2022-07-23T09:03:17;5.55;;;5.18;;
56657;SDS011;42530;52.240;19.354;2022-07-23T09:05:50;4.95;;;4.65;;
56657;SDS011;42530;52.240;19.354;2022-07-23T09:08:18;5.60;;;5.28;;
56657;SDS011;42530;52.240;19.354;2022-07-23T09:10:48;5.82;;;5.43;;
56657;SDS011;42530;52.240;19.354;2022-07-23T09:16:25;5.35;;;5.05;;
56657;SDS011;42530;52.240;19.354;2022-07-23T09:18:57;6.25;;;5.75;;
56657;SDS011;42530;52.240;19.354;2022-07-23T09:21:31;5.93;;;5.40;;
56657;SDS011;42530;52.240;19.354;2022-07-23T09:24:11;6.20;;;5.63;;
56657;SDS011;42530;52.240;19.354;2022-07-23T09:29:20;6.63;;;6.07;;
56657;SDS011;42530;52.240;19.354;2022-07-23T09:34:17;6.25;;;5.85;;
56657;SDS011;42530;52.240;19.354;2022-07-23T09:36:54;6.07;;;5.57;;
56657;SDS011;42530;52.240;19.354;2022-07-23T09:39:25;7.20;;;6.55;;
56657;SDS011;42530;52.240;19.354;2022-07-23T09:42:22;6.75;;;6.25;;
56657;SDS011;42530;52.240;19.354;2022-07-23T09:44:50;7.18;;;6.32;;
56657;SDS011;42530;52.240;19.354;2022-07-23T09:47:20;6.38;;;5.88;;
56657;SDS011;42530;52.240;19.354;2022-07-23T09:52:45;5.75;;;5.38;;
56657;SDS011;42530;52.240;19.354;2022-07-23T09:55:13;7.15;;;6.65;;
56657;SDS011;42530;52.240;19.354;2022-07-23T09:57:45;6.32;;;5.93;;
56657;SDS011;42530;52.240;19.354;2022-07-23T10:00:15;7.70;;;6.95;;
56657;SDS011;42530;52.240;19.354;2022-07-23T10:02:41;8.15;;;7.10;;
56657;SDS011;42530;52.240;19.354;2022-07-23T10:05:07;6.22;;;5.80;;
56657;SDS011;42530;52.240;19.354;2022-07-23T10:07:33;7.13;;;6.53;;
56657;SDS011;42530;52.240;19.354;2022-07-23T10:10:02;6.82;;;6.32;;
56657;SDS011;42530;52.240;19.354;2022-07-23T10:12:29;7.18;;;6.65;;
56657;SDS011;42530;52.240;19.354;2022-07-23T10:15:04;7.03;;;6.40;;
56657;SDS011;42530;52.240;19.354;2022-07-23T10:17:34;6.00;;;5.57;;
56657;SDS011;42530;52.240;19.354;2022-07-23T10:20:00;6.05;;;5.65;;
56657;SDS011;42530;52.240;19.354;2022-07-23T10:22:27;6.68;;;6.05;;
56657;SDS011;42530;52.240;19.354;2022-07-23T10:41:44;6.35;;;5.85;;
56657;SDS011;42530;52.240;19.354;2022-07-23T10:44:11;6.43;;;5.88;;
56657;SDS011;42530;52.240;19.354;2022-07-23T10:49:42;6.55;;;6.05;;
56657;SDS011;42530;52.240;19.354;2022-07-23T10:54:53;6.80;;;6.28;;
56657;SDS011;42530;52.240;19.354;2022-07-23T10:57:21;6.60;;;6.00;;
56657;SDS011;42530;52.240;19.354;2022-07-23T11:02:27;7.15;;;6.65;;
56657;SDS011;42530;52.240;19.354;2022-07-23T11:05:05;6.40;;;6.00;;
56657;SDS011;42530;52.240;19.354;2022-07-23T11:07:32;7.70;;;6.50;;
56657;SDS011;42530;52.240;19.354;2022-07-23T11:09:58;8.68;;;6.93;;
56657;SDS011;42530;52.240;19.354;2022-07-23T11:17:29;7.68;;;7.15;;
56657;SDS011;42530;52.240;19.354;2022-07-23T11:25:11;7.20;;;6.70;;
56657;SDS011;42530;52.240;19.354;2022-07-23T11:30:03;7.57;;;6.88;;
56657;SDS011;42530;52.240;19.354;2022-07-23T11:32:30;8.07;;;7.50;;
56657;SDS011;42530;52.240;19.354;2022-07-23T11:34:58;7.15;;;6.55;;
56657;SDS011;42530;52.240;19.354;2022-07-23T11:37:37;9.70;;;6.95;;
56657;SDS011;42530;52.240;19.354;2022-07-23T11:40:15;7.97;;;7.38;;
56657;SDS011;42530;52.240;19.354;2022-07-23T11:42:58;7.75;;;7.15;;
56657;SDS011;42530;52.240;19.354;2022-07-23T11:45:35;7.95;;;7.15;;
56657;SDS011;42530;52.240;19.354;2022-07-23T11:48:15;8.45;;;7.75;;
56657;SDS011;42530;52.240;19.354;2022-07-23T11:50:49;8.25;;;7.65;;
56657;SDS011;42530;52.240;19.354;2022-07-23T11:53:26;8.27;;;7.65;;
56657;SDS011;42530;52.240;19.354;2022-07-23T11:55:53;9.52;;;8.73;;
56657;SDS011;42530;52.240;19.354;2022-07-23T11:58:20;8.93;;;8.25;;
56657;SDS011;42530;52.240;19.354;2022-07-23T12:00:46;8.50;;;7.05;;
56657;SDS011;42530;52.240;19.354;2022-07-23T12:03:12;8.55;;;7.85;;
56657;SDS011;42530;52.240;19.354;2022-07-23T12:05:38;8.23;;;7.53;;
56657;SDS011;42530;52.240;19.354;2022-07-23T12:08:05;8.68;;;7.90;;
56657;SDS011;42530;52.240;19.354;2022-07-23T12:10:39;8.45;;;7.75;;
56657;SDS011;42530;52.240;19.354;2022-07-23T12:13:13;8.00;;;7.32;;
56657;SDS011;42530;52.240;19.354;2022-07-23T12:15:59;10.88;;;7.97;;
56657;SDS011;42530;52.240;19.354;2022-07-23T12:18:26;8.07;;;7.27;;
56657;SDS011;42530;52.240;19.354;2022-07-23T12:20:52;7.90;;;7.30;;
56657;SDS011;42530;52.240;19.354;2022-07-23T12:23:22;8.25;;;7.45;;
56657;SDS011;42530;52.240;19.354;2022-07-23T12:25:49;15.82;;;8.70;;
56657;SDS011;42530;52.240;19.354;2022-07-23T12:28:18;23.65;;;8.40;;
56657;SDS011;42530;52.240;19.354;2022-07-23T12:30:45;12.20;;;9.18;;
56657;SDS011;42530;52.240;19.354;2022-07-23T12:33:28;5.40;;;4.45;;
56657;SDS011;42530;52.240;19.354;2022-07-23T12:35:56;4.65;;;4.25;;
56657;SDS011;42530;52.240;19.354;2022-07-23T12:38:25;8.82;;;8.10;;
56657;SDS011;42530;52.240;19.354;2022-07-23T12:40:56;14.77;;;13.23;;
56657;SDS011;42530;52.240;19.354;2022-07-23T12:45:53;14.70;;;12.73;;
56657;SDS011;42530;52.240;19.354;2022-07-23T12:51:15;10.23;;;9.25;;
56657;SDS011;42530;52.240;19.354;2022-07-23T12:53:46;11.93;;;10.43;;
56657;SDS011;42530;52.240;19.354;2022-07-23T12:56:26;12.30;;;11.10;;
56657;SDS011;42530;52.240;19.354;2022-07-23T12:58:53;12.10;;;11.10;;
56657;SDS011;42530;52.240;19.354;2022-07-23T13:03:56;14.05;;;12.70;;
56657;SDS011;42530;52.240;19.354;2022-07-23T13:06:29;15.60;;;14.02;;
56657;SDS011;42530;52.240;19.354;2022-07-23T13:08:56;7.53;;;7.03;;
56657;SDS011;42530;52.240;19.354;2022-07-23T13:11:22;2.72;;;2.63;;
56657;SDS011;42530;52.240;19.354;2022-07-23T13:13:49;3.42;;;3.22;;
56657;SDS011;42530;52.240;19.354;2022-07-23T13:16:14;4.65;;;3.92;;
56657;SDS011;42530;52.240;19.354;2022-07-23T13:18:40;3.00;;;2.80;;
56657;SDS011;42530;52.240;19.354;2022-07-23T13:21:06;3.47;;;3.30;;
56657;SDS011;42530;52.240;19.354;2022-07-23T13:23:31;4.00;;;3.72;;
56657;SDS011;42530;52.240;19.354;2022-07-23T13:25:57;4.18;;;3.95;;
56657;SDS011;42530;52.240;19.354;2022-07-23T13:28:22;2.95;;;2.83;;
56657;SDS011;42530;52.240;19.354;2022-07-23T13:30:49;2.20;;;1.92;;
56657;SDS011;42530;52.240;19.354;2022-07-23T13:33:17;3.10;;;2.92;;
56657;SDS011;42530;52.240;19.354;2022-07-23T13:35:47;4.70;;;4.40;;
56657;SDS011;42530;52.240;19.354;2022-07-23T13:38:13;3.88;;;3.58;;
56657;SDS011;42530;52.240;19.354;2022-07-23T13:40:40;2.38;;;2.28;;
56657;SDS011;42530;52.240;19.354;2022-07-23T13:43:10;3.03;;;2.92;;
56657;SDS011;42530;52.240;19.354;2022-07-23T13:45:36;4.43;;;4.13;;
56657;SDS011;42530;52.240;19.354;2022-07-23T13:48:03;2.17;;;2.08;;
56657;SDS011;42530;52.240;19.354;2022-07-23T13:50:30;3.85;;;3.47;;
56657;SDS011;42530;52.240;19.354;2022-07-23T13:52:55;4.72;;;4.20;;
56657;SDS011;42530;52.240;19.354;2022-07-23T13:55:21;2.08;;;1.98;;
56657;SDS011;42530;52.240;19.354;2022-07-23T13:57:47;2.70;;;2.60;;
56657;SDS011;42530;52.240;19.354;2022-07-23T14:00:12;2.33;;;2.17;;
56657;SDS011;42530;52.240;19.354;2022-07-23T14:02:39;1.67;;;1.58;;
56657;SDS011;42530;52.240;19.354;2022-07-23T14:05:06;3.42;;;3.22;;
56657;SDS011;42530;52.240;19.354;2022-07-23T14:07:33;3.00;;;2.72;;
56657;SDS011;42530;52.240;19.354;2022-07-23T14:10:00;2.50;;;2.40;;
56657;SDS011;42530;52.240;19.354;2022-07-23T14:12:26;2.35;;;2.17;;
56657;SDS011;42530;52.240;19.354;2022-07-23T14:14:52;3.22;;;2.92;;
56657;SDS011;42530;52.240;19.354;2022-07-23T14:17:17;4.30;;;2.60;;
56657;SDS011;42530;52.240;19.354;2022-07-23T14:19:43;2.05;;;1.95;;
56657;SDS011;42530;52.240;19.354;2022-07-23T14:22:09;2.28;;;2.03;;
56657;SDS011;42530;52.240;19.354;2022-07-23T14:24:34;2.60;;;2.47;;
56657;SDS011;42530;52.240;19.354;2022-07-23T14:27:00;3.72;;;3.42;;
56657;SDS011;42530;52.240;19.354;2022-07-23T14:29:27;3.50;;;3.17;;
56657;SDS011;42530;52.240;19.354;2022-07-23T14:31:52;2.63;;;2.53;;
56657;SDS011;42530;52.240;19.354;2022-07-23T14:34:18;3.17;;;3.05;;
56657;SDS011;42530;52.240;19.354;2022-07-23T14:36:44;2.80;;;2.70;;
56657;SDS011;42530;52.240;19.354;2022-07-23T14:39:09;2.90;;;2.72;;
56657;SDS011;42530;52.240;19.354;2022-07-23T14:41:37;3.97;;;3.17;;
56657;SDS011;42530;52.240;19.354;2022-07-23T14:44:03;2.38;;;2.28;;
56657;SDS011;42530;52.240;19.354;2022-07-23T14:46:29;2.20;;;2.05;;
56657;SDS011;42530;52.240;19.354;2022-07-23T14:48:55;3.03;;;2.85;;
56657;SDS011;42530;52.240;19.354;2022-07-23T14:51:21;3.88;;;3.58;;
56657;SDS011;42530;52.240;19.354;2022-07-23T14:53:46;3.22;;;3.13;;
56657;SDS011;42530;52.240;19.354;2022-07-23T14:56:12;2.58;;;2.47;;
56657;SDS011;42530;52.240;19.354;2022-07-23T14:58:40;3.33;;;3.13;;
56657;SDS011;42530;52.240;19.354;2022-07-23T15:01:06;3.70;;;3.47;;
56657;SDS011;42530;52.240;19.354;2022-07-23T15:03:32;5.63;;;4.38;;
56657;SDS011;42530;52.240;19.354;2022-07-23T15:05:58;2.83;;;2.67;;
56657;SDS011;42530;52.240;19.354;2022-07-23T15:08:23;4.63;;;4.38;;
56657;SDS011;42530;52.240;19.354;2022-07-23T15:10:49;5.93;;;4.45;;
56657;SDS011;42530;52.240;19.354;2022-07-23T15:13:14;4.72;;;3.83;;
56657;SDS011;42530;52.240;19.354;2022-07-23T15:15:40;4.45;;;4.25;;